Terminal Aerodrome Forecast
Issued by NWS Sterling, VA

Current Version | Previous Version | Text Only | Print | Product List | Glossary Off
Versions: 1 2 3 4 5 6 7 8 9 10 11 12 13 14 15 16 17 18 19 20 21 22 23 24 25

000
FTUS41 KLWX 250500
TAFIAD
TAF
KIAD 250524Z 2506/2612 27006KT P6SM BKN250
     FM260300 35004KT P6SM OVC130
     FM260900 36007KT P6SM -RASN OVC045
     FM261100 01008KT P6SM -RASN OVC030=

USA.gov is the U.S. government's official web portal to all federal, state and local government web resources and services.